Time;durP1;ratioP1;P1;durP2;ratioP2;P2;SDS_P1;SDS_P2;PMS_P1;PMS_P2;Temp;Humidity;BMP_temperature;BMP_pressure;BME280_temperature;BME280_humidity;BME280_pressure;Samples;Min_cycle;Max_cycle;Signal;HPM_P1;HPM_P2
2022/05/23 00:01:18;;;;;;;5.13;1.63;;;;;;;22.27;35.83;100586.19;5086718;28;21001;-61
2022/05/23 00:03:45;;;;;;;6.07;1.80;;;;;;;22.17;35.93;100583.38;5086621;28;20425;-62
2022/05/23 00:06:16;;;;;;;4.78;1.60;;;;;;;22.12;36.10;100581.41;5087252;28;20497;-62
2022/05/23 00:08:43;;;;;;;5.50;1.50;;;;;;;22.10;35.98;100583.53;5086860;28;20410;-62
2022/05/23 00:11:10;;;;;;;2.85;1.38;;;;;;;22.13;35.98;100583.06;5085726;28;20466;-62
2022/05/23 00:13:37;;;;;;;2.47;1.42;;;;;;;22.07;36.07;100575.94;5085878;28;20507;-62
2022/05/23 00:16:05;;;;;;;2.65;1.40;;;;;;;22.06;36.03;100582.41;5086235;28;20431;-61
2022/05/23 00:18:33;;;;;;;3.90;1.58;;;;;;;22.01;36.09;100585.84;5077591;28;20422;-61
2022/05/23 00:21:00;;;;;;;4.60;1.53;;;;;;;22.03;36.01;100580.19;5085747;28;20410;-62
2022/05/23 00:23:27;;;;;;;4.50;2.53;;;;;;;21.96;36.10;100578.47;5086256;28;20512;-62
2022/05/23 00:25:54;;;;;;;3.63;1.60;;;;;;;21.83;36.30;100583.44;5085804;28;20480;-61
2022/05/23 00:28:21;;;;;;;2.15;1.30;;;;;;;21.89;36.06;100583.25;5086184;28;20442;-62
2022/05/23 00:30:48;;;;;;;3.38;1.50;;;;;;;21.90;36.17;100582.19;5085737;28;20415;-62
2022/05/23 00:36:01;;;;;;;3.17;1.40;;;;;;;21.66;36.65;100583.44;5085305;28;20491;-62
2022/05/23 00:38:27;;;;;;;2.85;1.50;;;;;;;21.68;36.69;100592.09;5085616;28;20774;-61
2022/05/23 00:43:41;;;;;;;3.58;1.20;;;;;;;21.55;36.87;100593.25;5085270;28;20551;-62
2022/05/23 00:46:08;;;;;;;3.90;1.40;;;;;;;21.45;37.06;100610.13;5085792;28;20428;-62
2022/05/23 00:48:35;;;;;;;1.83;1.40;;;;;;;21.54;36.89;100608.63;5085822;28;20449;-62
2022/05/23 00:51:09;;;;;;;2.95;1.60;;;;;;;21.61;36.63;100605.78;5085386;28;20822;-61
2022/05/23 00:53:39;;;;;;;3.03;1.30;;;;;;;21.58;36.62;100607.06;5082004;28;20418;-62
2022/05/23 00:56:07;;;;;;;3.30;1.35;;;;;;;21.47;36.82;100610.69;5056545;28;20501;-62
2022/05/23 00:58:40;;;;;;;3.00;1.30;;;;;;;21.25;37.25;100613.25;5071578;28;20510;-62
2022/05/23 01:01:11;;;;;;;2.35;1.50;;;;;;;21.43;36.89;100608.66;5071616;28;20422;-62
2022/05/23 01:03:39;;;;;;;2.95;1.52;;;;;;;21.35;37.10;100601.81;5071361;28;20928;-62
2022/05/23 01:06:08;;;;;;;2.92;1.33;;;;;;;21.36;36.90;100601.56;5055820;28;20940;-62
2022/05/23 01:08:37;;;;;;;3.05;1.60;;;;;;;21.33;37.07;100602.06;5071980;28;20497;-62
2022/05/23 01:11:05;;;;;;;3.57;1.60;;;;;;;21.41;36.83;100608.09;5071249;28;20793;-62
2022/05/23 01:13:32;;;;;;;3.42;1.67;;;;;;;21.27;37.14;100604.94;5071476;28;20983;-61
2022/05/23 01:15:59;;;;;;;3.35;1.40;;;;;;;21.20;37.16;100597.78;5071387;28;20425;-62
2022/05/23 01:18:27;;;;;;;4.83;1.77;;;;;;;21.27;37.21;100597.66;5071855;28;21346;-61
2022/05/23 01:20:58;;;;;;;3.05;1.60;;;;;;;21.24;37.15;100600.81;5071451;28;20800;-62
2022/05/23 01:23:36;;;;;;;4.00;1.70;;;;;;;21.16;37.11;100588.56;5071343;28;20924;-61
2022/05/23 01:26:05;;;;;;;3.63;1.70;;;;;;;21.12;37.34;100591.97;5071086;28;20859;-62
2022/05/23 01:28:34;;;;;;;2.83;1.70;;;;;;;21.19;37.21;100584.56;5071166;28;20411;-62
2022/05/23 01:31:01;;;;;;;3.00;1.60;;;;;;;21.09;37.46;100589.78;5071237;28;20426;-62
2022/05/23 01:33:28;;;;;;;4.57;1.63;;;;;;;21.08;37.40;100591.66;5071166;28;21034;-61
2022/05/23 01:35:57;;;;;;;3.05;1.88;;;;;;;21.09;37.20;100584.41;5071264;28;20502;-62
2022/05/23 01:38:24;;;;;;;2.85;1.55;;;;;;;20.86;37.51;100588.03;5071301;28;20476;-62
2022/05/23 01:40:51;;;;;;;3.25;1.52;;;;;;;20.87;37.52;100585.09;5070998;28;21000;-61
2022/05/23 01:43:19;;;;;;;6.20;1.80;;;;;;;20.99;37.36;100579.63;5070592;28;20431;-62
2022/05/23 01:45:46;;;;;;;4.07;2.00;;;;;;;21.04;37.36;100584.31;5070607;28;20417;-61
2022/05/23 01:48:13;;;;;;;2.08;1.60;;;;;;;21.06;37.29;100585.69;5071163;28;20425;-62
2022/05/23 01:50:40;;;;;;;4.25;1.77;;;;;;;21.03;37.31;100590.75;5070839;28;20437;-61
2022/05/23 01:53:07;;;;;;;3.45;1.67;;;;;;;21.02;37.21;100591.81;5071401;28;20502;-61
2022/05/23 01:55:36;;;;;;;3.30;1.60;;;;;;;20.78;37.74;100590.06;5070853;28;20537;-62
2022/05/23 01:58:03;;;;;;;4.50;2.00;;;;;;;20.67;37.77;100596.31;5070534;28;20493;-61
2022/05/23 02:03:15;;;;;;;3.60;1.75;;;;;;;20.72;37.69;100595.56;5070551;28;20511;-62
2022/05/23 02:05:43;;;;;;;4.03;1.85;;;;;;;20.64;37.83;100596.78;5069783;28;20415;-62
2022/05/23 02:08:10;;;;;;;4.32;1.77;;;;;;;20.72;37.55;100588.31;5055011;28;20522;-61
2022/05/23 02:10:37;;;;;;;4.17;2.10;;;;;;;20.74;37.68;100588.91;5070444;28;20462;-62
2022/05/23 02:13:05;;;;;;;3.88;1.65;;;;;;;20.79;37.53;100594.38;5070321;28;20931;-62
2022/05/23 02:15:34;;;;;;;3.75;1.83;;;;;;;20.76;37.65;100591.34;5070200;28;20878;-61
2022/05/23 02:18:01;;;;;;;4.82;2.08;;;;;;;20.77;37.62;100596.50;5069764;28;20600;-62
2022/05/23 02:20:29;;;;;;;3.83;2.15;;;;;;;20.76;37.84;100588.63;5070048;28;20419;-61
2022/05/23 02:22:59;;;;;;;3.92;2.10;;;;;;;20.81;37.61;100588.75;5069934;28;20920;-62
2022/05/23 02:25:28;;;;;;;3.83;2.10;;;;;;;20.67;37.84;100587.41;5070114;28;20999;-62
2022/05/23 02:27:56;;;;;;;2.95;2.00;;;;;;;20.77;37.66;100582.22;5069754;28;20502;-61
2022/05/23 02:30:23;;;;;;;6.32;3.30;;;;;;;20.80;37.80;100592.50;5069935;28;20419;-61
2022/05/23 02:32:52;;;;;;;5.22;3.00;;;;;;;20.74;37.87;100590.75;5070003;28;20514;-61
2022/05/23 02:35:20;;;;;;;6.40;3.30;;;;;;;20.80;37.77;100579.84;5069966;28;20407;-61
2022/05/23 02:37:47;;;;;;;4.97;3.40;;;;;;;20.74;37.94;100593.47;5068850;28;20419;-62
2022/05/23 02:40:14;;;;;;;4.60;2.90;;;;;;;20.69;38.02;100588.81;5070127;28;20501;-62
2022/05/23 02:42:41;;;;;;;6.28;3.00;;;;;;;20.86;37.57;100586.16;5069862;28;20419;-61
2022/05/23 02:45:10;;;;;;;5.78;3.08;;;;;;;20.70;37.72;100586.91;5069854;28;20423;-61
2022/05/23 02:47:37;;;;;;;5.65;3.00;;;;;;;20.82;37.65;100590.38;5069691;28;20496;-61
2022/05/23 02:50:07;;;;;;;4.93;2.95;;;;;;;20.94;37.42;100583.06;5069613;28;20498;-61
2022/05/23 02:52:34;;;;;;;3.75;2.60;;;;;;;20.91;37.30;100591.63;5070209;28;20415;-61
2022/05/23 02:55:01;;;;;;;5.65;2.70;;;;;;;21.01;37.27;100588.28;5069525;28;20506;-62
2022/05/23 02:57:28;;;;;;;3.88;2.53;;;;;;;20.95;37.45;100592.78;5069553;28;20501;-61
2022/05/23 02:59:55;;;;;;;6.27;2.67;;;;;;;21.00;37.13;100586.66;5069436;28;20498;-62
2022/05/23 03:05:09;;;;;;;4.18;2.65;;;;;;;20.97;37.12;100592.53;5069483;28;20464;-61
2022/05/23 03:07:36;;;;;;;4.47;2.60;;;;;;;20.88;36.99;100602.88;5069339;28;20502;-62
2022/05/23 03:10:04;;;;;;;4.45;2.38;;;;;;;20.75;37.22;100593.22;5068688;28;20987;-62
2022/05/23 03:12:34;;;;;;;5.03;2.50;;;;;;;21.07;36.66;100591.88;5069343;28;20498;-61
2022/05/23 03:15:01;;;;;;;6.30;2.42;;;;;;;21.01;36.66;100599.06;5069261;28;20414;-62
2022/05/23 03:17:28;;;;;;;5.63;2.65;;;;;;;21.09;36.64;100592.50;5068729;28;20995;-62
2022/05/23 03:19:55;;;;;;;5.45;2.35;;;;;;;21.39;35.95;100589.47;5068921;28;22102;-62
2022/05/23 03:27:53;;;;;;;3.80;3.03;;;;;;;21.80;35.62;100589.31;5069016;28;20438;-61
2022/05/23 03:30:20;;;;;;;8.27;3.20;;;;;;;21.63;35.73;100586.66;5069417;28;20497;-62
2022/05/23 03:32:47;;;;;;;8.10;3.33;;;;;;;21.64;35.66;100583.69;5068364;28;20415;-61
2022/05/23 03:35:14;;;;;;;5.45;3.10;;;;;;;22.03;34.96;100586.41;5069290;28;20442;-62
2022/05/23 03:37:43;;;;;;;6.82;3.28;;;;;;;22.19;34.73;100584.72;5069779;28;20788;-62
2022/05/23 03:40:11;;;;;;;5.07;3.00;;;;;;;22.17;34.71;100586.06;5069665;28;20426;-62
2022/05/23 03:42:38;;;;;;;4.72;3.03;;;;;;;22.23;34.59;100587.75;5069344;28;20494;-62
2022/05/23 03:45:08;;;;;;;8.50;3.30;;;;;;;22.41;34.21;100583.94;5068490;28;20505;-63
2022/05/23 03:47:35;;;;;;;6.43;2.95;;;;;;;22.48;34.22;100585.38;5067353;28;20494;-63
2022/05/23 03:50:02;;;;;;;6.28;3.78;;;;;;;22.64;34.00;100597.19;5067703;28;20942;-62
2022/05/23 03:52:29;;;;;;;7.50;3.47;;;;;;;22.64;33.90;100588.28;5067573;28;20446;-62
2022/05/23 03:54:57;;;;;;;7.00;3.58;;;;;;;22.74;33.80;100588.34;5067262;28;20784;-62
2022/05/23 03:57:24;;;;;;;8.68;4.63;;;;;;;22.96;33.30;100588.34;5066915;28;20498;-63
2022/05/23 03:59:52;;;;;;;5.50;3.35;;;;;;;22.75;33.53;100589.19;5067562;28;20493;-61
2022/05/23 04:02:20;;;;;;;4.93;3.20;;;;;;;22.98;33.08;100590.78;5067091;28;20406;-60
2022/05/23 04:04:48;;;;;;;8.73;4.25;;;;;;;23.16;32.82;100576.91;5066663;28;20435;-61
2022/05/23 04:07:15;;;;;;;5.50;3.40;;;;;;;23.03;32.92;100580.84;5066838;28;20502;-61
2022/05/23 04:09:42;;;;;;;5.63;3.50;;;;;;;22.98;32.64;100577.28;5067063;28;20498;-61
2022/05/23 04:12:11;;;;;;;6.13;2.78;;;;;;;22.91;32.85;100578.28;5067213;28;20411;-61
2022/05/23 04:14:38;;;;;;;6.72;3.10;;;;;;;23.16;32.61;100578.81;5068105;28;20551;-62
2022/05/23 04:17:06;;;;;;;6.63;2.80;;;;;;;23.08;32.70;100577.38;5067120;28;20775;-61
2022/05/23 04:19:33;;;;;;;5.20;2.90;;;;;;;23.28;31.96;100576.72;5067334;28;20418;-61
2022/05/23 04:22:00;;;;;;;4.85;2.70;;;;;;;23.45;32.04;100574.72;5066730;28;20415;-62
2022/05/23 04:24:28;;;;;;;8.60;3.80;;;;;;;23.61;31.85;100577.53;5066709;28;20513;-61
2022/05/23 04:26:56;;;;;;;7.72;2.90;;;;;;;23.64;31.92;100571.59;5066998;28;20411;-62
2022/05/23 04:29:25;;;;;;;36.75;5.32;;;;;;;23.71;31.75;100555.13;5067811;28;20506;-63
2022/05/23 04:31:52;;;;;;;5.27;2.70;;;;;;;24.02;31.43;100556.97;5070487;28;20506;-63
2022/05/23 04:37:04;;;;;;;7.75;3.20;;;;;;;23.77;31.58;100549.50;5071495;28;20405;-61
2022/05/23 04:39:31;;;;;;;7.07;3.00;;;;;;;23.90;31.38;100550.94;5071472;28;20423;-63
2022/05/23 04:41:57;;;;;;;5.38;3.00;;;;;;;24.03;31.31;100549.66;5070955;28;20411;-62
2022/05/23 04:44:26;;;;;;;5.57;3.13;;;;;;;24.12;31.31;100547.25;5072154;28;20510;-62
2022/05/23 04:49:44;;;;;;;5.13;2.80;;;;;;;24.73;30.35;100547.44;5050421;28;20414;-62
2022/05/23 04:52:13;;;;;;;6.07;2.83;;;;;;;25.03;30.34;100548.56;5071804;28;20784;-62
2022/05/23 04:54:41;;;;;;;5.43;3.13;;;;;;;24.97;30.16;100546.94;5070697;28;20411;-62
2022/05/23 04:57:08;;;;;;;4.70;2.55;;;;;;;25.31;29.66;100552.66;5070006;28;20502;-63
2022/05/23 04:59:37;;;;;;;4.85;2.53;;;;;;;25.43;29.40;100544.25;5070559;28;20576;-63
2022/05/23 05:02:05;;;;;;;5.88;3.17;;;;;;;25.29;29.61;100549.41;5071256;28;20491;-62
2022/05/23 05:04:33;;;;;;;6.32;2.35;;;;;;;25.28;29.58;100547.78;5070660;28;20430;-63
2022/05/23 05:07:00;;;;;;;5.05;2.60;;;;;;;25.57;29.25;100544.50;5069654;28;20510;-63
2022/05/23 05:09:28;;;;;;;6.35;2.50;;;;;;;25.79;28.65;100536.03;5071089;28;20482;-63
2022/05/23 05:11:55;;;;;;;3.88;2.60;;;;;;;25.80;28.59;100531.41;5071336;28;20417;-63
2022/05/23 05:14:22;;;;;;;5.85;2.50;;;;;;;26.21;28.17;100531.28;5071579;28;20411;-64
2022/05/23 05:16:51;;;;;;;3.78;2.40;;;;;;;26.39;28.10;100540.69;5071713;28;20520;-63
2022/05/23 05:19:18;;;;;;;4.00;2.28;;;;;;;26.56;27.60;100537.59;5071651;28;20411;-63
2022/05/23 05:21:45;;;;;;;5.15;2.50;;;;;;;26.73;27.57;100543.50;5071649;28;20411;-63
2022/05/23 05:24:11;;;;;;;4.93;1.93;;;;;;;26.64;27.23;100537.84;5071831;28;20462;-63
2022/05/23 05:26:39;;;;;;;3.92;1.60;;;;;;;26.67;26.78;100547.38;5071571;28;20418;-63
2022/05/23 05:29:06;;;;;;;5.00;1.80;;;;;;;26.65;26.90;100544.91;5071526;28;20419;-63
2022/05/23 05:31:38;;;;;;;2.70;1.65;;;;;;;26.80;26.82;100548.63;5071753;28;20476;-63
2022/05/23 05:34:11;;;;;;;4.68;1.88;;;;;;;26.90;26.54;100553.97;5071692;28;20403;-63
2022/05/23 05:36:43;;;;;;;4.33;1.90;;;;;;;27.20;26.71;100552.13;5071835;28;20410;-63
2022/05/23 05:39:11;;;;;;;2.40;1.60;;;;;;;27.32;25.93;100547.16;5071636;28;20570;-64
2022/05/23 05:41:48;;;;;;;4.35;1.83;;;;;;;27.61;25.74;100547.13;5071031;28;20411;-63
2022/05/23 05:44:21;;;;;;;3.40;1.60;;;;;;;27.99;25.26;100539.09;5071234;28;20932;-63
2022/05/23 05:46:53;;;;;;;2.58;1.40;;;;;;;28.26;24.72;100545.03;5071155;28;20489;-62
2022/05/23 05:49:25;;;;;;;5.03;1.48;;;;;;;28.44;24.25;100536.06;5071103;28;20975;-63
2022/05/23 05:51:55;;;;;;;3.00;1.33;;;;;;;28.60;24.02;100534.75;5071113;28;20415;-63
2022/05/23 05:54:25;;;;;;;4.47;1.48;;;;;;;28.78;24.09;100535.84;5071338;28;20414;-63
2022/05/23 05:56:54;;;;;;;2.63;1.25;;;;;;;28.65;24.00;100527.59;5070972;28;20410;-62
2022/05/23 05:59:22;;;;;;;3.70;1.53;;;;;;;28.90;24.01;100542.75;5070937;28;20499;-62
2022/05/23 06:01:49;;;;;;;4.40;1.75;;;;;;;29.28;24.09;100540.81;5070719;28;21010;-62
2022/05/23 06:04:16;;;;;;;2.75;1.40;;;;;;;29.43;23.14;100528.78;5070769;28;20949;-63
2022/05/23 06:12:27;;;;;;;3.93;2.17;;;;;;;29.46;22.47;100538.28;5028467;28;20419;-63
2022/05/23 06:14:54;;;;;;;25.85;2.85;;;;;;;29.71;22.09;100534.25;5028741;28;20508;-63
2022/05/23 06:17:21;;;;;;;4.88;1.40;;;;;;;29.92;21.56;100535.50;5046729;28;20411;-63
2022/05/23 06:19:48;;;;;;;9.70;1.67;;;;;;;30.15;21.28;100535.59;5070040;28;20498;-63
2022/05/23 06:22:19;;;;;;;6.97;1.30;;;;;;;30.56;21.09;100534.72;5070005;28;20979;-63
2022/05/23 06:24:45;;;;;;;25.23;3.05;;;;;;;31.11;20.75;100528.19;5069935;28;20430;-63
2022/05/23 06:27:12;;;;;;;6.67;1.50;;;;;;;31.20;20.45;100533.72;5069976;28;20972;-63
2022/05/23 06:29:39;;;;;;;12.10;1.60;;;;;;;31.35;20.26;100529.78;5069961;28;20501;-64
2022/05/23 06:32:07;;;;;;;3.83;1.13;;;;;;;31.68;19.11;100532.22;5069944;28;20419;-64
2022/05/23 06:34:34;;;;;;;4.28;1.48;;;;;;;31.61;18.70;100532.69;5069818;28;20503;-63
2022/05/23 06:37:01;;;;;;;5.30;1.40;;;;;;;32.03;18.76;100524.09;5070121;28;20429;-64
2022/05/23 06:39:30;;;;;;;3.03;1.30;;;;;;;31.41;18.78;100525.78;5069917;28;20421;-64
2022/05/23 06:41:57;;;;;;;4.93;1.00;;;;;;;31.78;18.02;100526.44;5069442;28;20423;-64
2022/05/23 06:44:24;;;;;;;5.23;1.20;;;;;;;31.63;18.17;100525.75;5069947;28;20478;-64
2022/05/23 06:46:51;;;;;;;2.80;1.10;;;;;;;31.43;18.78;100526.28;5069956;28;20407;-63
2022/05/23 06:49:18;;;;;;;3.50;1.10;;;;;;;31.35;18.41;100527.03;5070226;28;20446;-63
2022/05/23 06:51:49;;;;;;;2.33;0.88;;;;;;;30.92;19.01;100527.59;5069376;28;20956;-63
2022/05/23 06:54:17;;;;;;;2.28;1.00;;;;;;;31.10;18.66;100526.59;5070223;28;20415;-63
2022/05/23 06:56:48;;;;;;;2.88;1.20;;;;;;;30.91;18.92;100518.56;5070068;28;20426;-64
2022/05/23 06:59:15;;;;;;;1.87;1.00;;;;;;;30.32;19.81;100521.25;5070130;28;20495;-63
2022/05/23 07:01:43;;;;;;;2.30;1.20;;;;;;;30.41;19.88;100515.91;5070064;28;20522;-63
2022/05/23 07:04:10;;;;;;;3.45;1.15;;;;;;;30.38;20.06;100516.50;5070020;28;20507;-63
2022/05/23 07:12:20;;;;;;;4.20;1.20;;;;;;;30.07;20.51;100514.44;5069706;28;20406;-63
2022/05/23 07:14:48;;;;;;;3.88;1.30;;;;;;;29.91;20.31;100513.97;5069837;28;20407;-61
2022/05/23 07:17:15;;;;;;;4.03;1.40;;;;;;;29.73;20.80;100521.94;5069593;28;20985;-62
2022/05/23 07:19:42;;;;;;;3.77;1.10;;;;;;;29.48;20.95;100515.03;5069845;28;20440;-62
2022/05/23 07:22:09;;;;;;;4.82;1.23;;;;;;;29.61;21.39;100507.97;5069331;28;20411;-61
2022/05/23 07:24:36;;;;;;;2.08;1.17;;;;;;;29.49;21.87;100524.03;5069593;28;20431;-61
2022/05/23 07:27:04;;;;;;;4.25;1.20;;;;;;;29.93;21.14;100518.00;5069849;28;20411;-62
2022/05/23 07:29:32;;;;;;;6.22;1.50;;;;;;;29.81;21.11;100520.44;5069705;28;20502;-61
2022/05/23 07:32:00;;;;;;;3.10;0.95;;;;;;;29.92;21.20;100524.56;5069420;28;20489;-61
2022/05/23 07:34:27;;;;;;;2.65;0.93;;;;;;;29.82;21.18;100518.50;5069022;28;20501;-61
2022/05/23 07:36:55;;;;;;;3.20;1.10;;;;;;;29.45;21.55;100523.84;5069334;28;20983;-61
2022/05/23 07:39:22;;;;;;;2.67;1.08;;;;;;;29.60;21.51;100519.19;5069301;28;20421;-63
2022/05/23 07:41:49;;;;;;;2.22;1.00;;;;;;;29.17;21.57;100520.22;5069078;28;20999;-61
2022/05/23 07:44:16;;;;;;;3.88;1.30;;;;;;;29.26;21.93;100526.66;5069193;28;20881;-61
2022/05/23 07:46:45;;;;;;;2.25;1.05;;;;;;;29.47;21.47;100516.13;5069234;28;20960;-61
2022/05/23 07:49:12;;;;;;;2.20;1.08;;;;;;;29.41;21.63;100519.28;5069538;28;20406;-62
2022/05/23 07:51:39;;;;;;;3.15;1.40;;;;;;;29.43;21.77;100522.53;5069750;28;20421;-61
2022/05/23 08:02:21;;;;;;;3.00;1.10;;;;;;;29.27;20.56;100520.06;5069249;28;20410;-63
2022/05/23 08:04:48;;;;;;;4.57;1.70;;;;;;;29.68;20.53;100522.03;5071154;28;20505;-61
2022/05/23 08:07:15;;;;;;;1.27;0.88;;;;;;;29.58;20.11;100524.16;5073108;28;20926;-62
2022/05/23 08:09:42;;;;;;;1.98;0.90;;;;;;;29.58;19.99;100524.94;5073305;28;20886;-62
2022/05/23 08:12:12;;;;;;;2.40;1.10;;;;;;;29.71;20.03;100518.69;5072999;28;20493;-62
2022/05/23 08:14:39;;;;;;;2.33;1.23;;;;;;;29.84;19.82;100514.38;5073122;28;20442;-61
2022/05/23 08:17:07;;;;;;;1.67;0.88;;;;;;;29.02;20.19;100515.03;5073191;28;20521;-62
2022/05/23 08:19:36;;;;;;;2.55;1.08;;;;;;;29.04;20.16;100518.25;5072829;28;20800;-61
2022/05/23 08:22:04;;;;;;;3.47;1.02;;;;;;;29.01;20.12;100521.56;5072639;28;21055;-62
2022/05/23 08:24:33;;;;;;;2.17;1.30;;;;;;;29.05;19.79;100506.25;5072661;28;20430;-61
2022/05/23 08:27:00;;;;;;;2.08;1.02;;;;;;;29.22;19.59;100509.22;5072999;28;20413;-62
2022/05/23 08:29:27;;;;;;;1.80;0.90;;;;;;;29.07;19.62;100514.94;5072651;28;20437;-61
2022/05/23 08:31:54;;;;;;;1.70;0.95;;;;;;;29.16;20.04;100503.06;5072563;28;20498;-61
2022/05/23 08:34:22;;;;;;;2.63;0.90;;;;;;;29.13;19.39;100505.53;5072686;28;20415;-61
2022/05/23 08:36:52;;;;;;;2.20;0.90;;;;;;;29.03;19.35;100512.00;5072374;28;20464;-62
2022/05/23 08:39:19;;;;;;;2.88;0.80;;;;;;;28.78;19.34;100505.84;5072440;28;20497;-61
2022/05/23 08:41:48;;;;;;;3.30;1.08;;;;;;;28.62;19.77;100511.84;5072220;28;20422;-61
2022/05/23 08:44:27;;;;;;;2.70;0.75;;;;;;;29.05;20.19;100500.78;5072310;28;20994;-61
2022/05/23 08:47:00;;;;;;;1.73;0.95;;;;;;;29.13;19.55;100495.44;5072722;28;20429;-61
2022/05/23 08:49:45;;;;;;;2.30;1.00;;;;;;;29.32;19.46;100494.59;5072173;28;20834;-61
2022/05/23 08:52:19;;;;;;;2.08;0.70;;;;;;;29.10;19.54;100503.41;5072367;28;20419;-62
2022/05/23 08:54:54;;;;;;;2.93;1.20;;;;;;;29.19;19.49;100506.28;5071100;28;20953;-61
2022/05/23 08:57:30;;;;;;;2.83;0.90;;;;;;;29.10;19.48;100489.75;5071481;28;20411;-61
2022/05/23 09:00:01;;;;;;;2.50;1.02;;;;;;;29.08;19.64;100494.72;5072375;28;20415;-62
2022/05/23 09:02:39;;;;;;;1.93;0.97;;;;;;;29.12;18.88;100491.09;5072355;28;20417;-62
2022/05/23 09:05:10;;;;;;;1.98;0.80;;;;;;;29.52;19.08;100490.66;5072205;28;20437;-62
2022/05/23 09:07:44;;;;;;;3.10;1.40;;;;;;;29.31;18.44;100492.97;5072335;28;20525;-62
2022/05/23 09:10:17;;;;;;;2.00;1.23;;;;;;;29.34;18.32;100484.19;5072265;28;20403;-61
2022/05/23 09:12:44;;;;;;;2.60;0.90;;;;;;;29.44;18.36;100484.00;5071808;28;20796;-63
2022/05/23 09:15:11;;;;;;;2.55;1.10;;;;;;;29.21;18.64;100479.50;5071412;28;20411;-60
2022/05/23 09:17:44;;;;;;;2.00;1.27;;;;;;;29.11;18.83;100494.13;5071693;28;20417;-61
2022/05/23 09:20:15;;;;;;;2.63;1.20;;;;;;;29.52;18.69;100482.47;5071733;28;20407;-62
2022/05/23 09:22:50;;;;;;;2.05;1.13;;;;;;;29.60;18.47;100478.22;5071665;28;20411;-62
2022/05/23 09:25:20;;;;;;;2.53;1.03;;;;;;;29.67;18.67;100473.16;5071909;28;20850;-62
2022/05/23 09:27:52;;;;;;;1.50;1.00;;;;;;;29.85;18.46;100466.00;5071829;28;20796;-61
2022/05/23 09:30:23;;;;;;;2.95;0.98;;;;;;;29.53;19.03;100459.50;5071653;28;20411;-61
2022/05/23 09:32:55;;;;;;;1.92;0.85;;;;;;;29.50;19.26;100465.59;5071456;28;20411;-61
2022/05/23 09:35:24;;;;;;;1.83;0.80;;;;;;;29.29;19.22;100459.69;5071802;28;20419;-61
2022/05/23 09:38:15;;;;;;;2.33;1.00;;;;;;;29.51;19.26;100464.47;5071406;28;20460;-61
2022/05/23 09:40:43;;;;;;;1.50;1.00;;;;;;;29.46;19.04;100468.13;5071579;28;20411;-61
2022/05/23 09:49:13;;;;;;;2.25;0.80;;;;;;;29.38;18.82;100454.34;5070843;28;20407;-61
2022/05/23 09:51:54;;;;;;;2.13;0.88;;;;;;;29.15;19.38;100457.78;5071021;28;20417;-61
2022/05/23 09:54:28;;;;;;;4.40;0.90;;;;;;;29.27;19.47;100462.72;5071022;28;20411;-61
2022/05/23 09:56:56;;;;;;;3.63;1.00;;;;;;;28.95;19.56;100463.56;5071047;28;20916;-61
2022/05/23 09:59:30;;;;;;;2.17;1.17;;;;;;;29.25;19.21;100447.78;5071266;28;20419;-61
2022/05/23 10:01:57;;;;;;;2.00;0.97;;;;;;;29.09;18.84;100448.00;5071263;28;20421;-61
2022/05/23 10:04:28;;;;;;;2.70;0.85;;;;;;;29.16;18.55;100445.72;5070811;28;20905;-61
2022/05/23 10:06:55;;;;;;;2.30;1.00;;;;;;;29.10;18.10;100443.34;5070756;28;20966;-61
2022/05/23 10:09:30;;;;;;;2.85;1.00;;;;;;;29.19;18.24;100438.88;5070742;28;20418;-62
2022/05/23 10:12:00;;;;;;;1.90;1.00;;;;;;;29.27;18.46;100438.16;5070991;28;20415;-61
2022/05/23 10:14:47;;;;;;;1.97;0.90;;;;;;;29.62;18.60;100429.56;5070642;28;20411;-61
2022/05/23 10:17:26;;;;;;;1.55;0.88;;;;;;;29.49;18.75;100434.72;5070577;28;20407;-61
2022/05/23 10:19:54;;;;;;;2.40;0.90;;;;;;;29.20;18.81;100437.75;5070496;28;20419;-61
2022/05/23 10:22:25;;;;;;;2.08;1.00;;;;;;;29.21;19.02;100436.66;5070516;28;20453;-61
2022/05/23 10:24:57;;;;;;;2.72;0.98;;;;;;;29.54;18.86;100431.88;5070218;28;20916;-62
2022/05/23 10:27:37;;;;;;;2.88;0.90;;;;;;;29.55;18.73;100436.25;5069419;28;20421;-61
2022/05/23 10:30:07;;;;;;;2.10;1.30;;;;;;;29.54;18.64;100426.44;5070201;28;20415;-61
2022/05/23 10:32:41;;;;;;;2.60;0.80;;;;;;;29.64;18.67;100422.69;5070110;28;20411;-62
2022/05/23 10:35:16;;;;;;;2.60;1.10;;;;;;;29.74;19.26;100414.28;5069958;28;20446;-61
2022/05/23 10:37:44;;;;;;;2.35;1.02;;;;;;;29.83;18.68;100411.63;5070457;28;20403;-62
2022/05/23 10:43:08;;;;;;;2.88;1.00;;;;;;;29.45;17.72;100409.13;5070325;28;20421;-62
2022/05/23 10:45:41;;;;;;;1.63;0.90;;;;;;;29.77;17.82;100399.22;5070382;28;20481;-62
2022/05/23 10:48:24;;;;;;;1.70;0.80;;;;;;;29.83;18.23;100406.19;5070040;28;20774;-61
2022/05/23 10:50:55;;;;;;;1.92;0.70;;;;;;;29.74;18.37;100405.25;5070181;28;20422;-61
2022/05/23 10:53:38;;;;;;;3.05;0.90;;;;;;;29.66;18.25;100406.78;5070154;28;20412;-61
2022/05/23 10:56:19;;;;;;;2.27;1.00;;;;;;;30.00;18.19;100410.19;5070258;28;20521;-61
2022/05/23 10:58:55;;;;;;;2.55;1.10;;;;;;;29.91;18.30;100400.00;5070146;28;20423;-60
2022/05/23 11:01:43;;;;;;;3.45;1.00;;;;;;;29.80;18.62;100401.34;5070166;28;20421;-62
2022/05/23 11:04:26;;;;;;;4.88;1.00;;;;;;;29.43;18.35;100405.09;5070097;28;20904;-60
2022/05/23 11:07:09;;;;;;;3.33;1.00;;;;;;;29.42;18.08;100404.28;5069937;28;20438;-61
2022/05/23 11:09:47;;;;;;;2.13;0.70;;;;;;;29.21;18.09;100405.78;5069994;28;20415;-61
2022/05/23 11:12:26;;;;;;;2.10;0.80;;;;;;;29.12;18.56;100383.84;5069943;28;20433;-61
2022/05/23 11:15:08;;;;;;;2.15;0.93;;;;;;;29.27;18.64;100389.03;5069634;28;20422;-61
2022/05/23 11:17:45;;;;;;;2.83;0.85;;;;;;;29.22;18.08;100402.75;5069563;28;20407;-61
2022/05/23 11:20:20;;;;;;;6.00;1.10;;;;;;;29.21;18.46;100403.91;5069652;28;20421;-61
2022/05/23 11:22:51;;;;;;;1.50;0.82;;;;;;;29.34;18.21;100388.63;5069594;28;20411;-61
2022/05/23 11:25:29;;;;;;;3.23;0.73;;;;;;;29.12;18.16;100395.56;5069436;28;20477;-62
2022/05/23 11:33:46;;;;;;;2.20;0.85;;;;;;;29.12;19.37;100392.84;5069397;28;20444;-61
2022/05/23 11:36:18;;;;;;;7.32;1.50;;;;;;;29.40;19.11;100384.66;5069277;28;20800;-61
2022/05/23 11:38:47;;;;;;;4.60;1.13;;;;;;;29.07;19.55;100390.19;5069144;28;20421;-62
2022/05/23 11:41:31;;;;;;;4.35;1.00;;;;;;;29.45;19.58;100386.50;5068843;28;20421;-62
2022/05/23 11:44:00;;;;;;;2.40;0.90;;;;;;;29.52;19.79;100392.34;5068917;28;20425;-62
2022/05/23 11:46:28;;;;;;;3.03;0.80;;;;;;;29.28;19.46;100378.91;5069445;28;20426;-61
2022/05/23 11:49:00;;;;;;;2.60;0.88;;;;;;;29.22;19.35;100371.94;5069516;28;20448;-62
2022/05/23 11:51:36;;;;;;;3.15;0.82;;;;;;;29.39;19.33;100369.41;5069077;28;20468;-61
2022/05/23 11:54:10;;;;;;;3.33;1.20;;;;;;;29.46;19.82;100367.06;5069557;28;20521;-61
2022/05/23 11:57:10;;;;;;;2.17;0.90;;;;;;;29.52;20.01;100365.03;5068929;28;21030;-62
2022/05/23 12:00:15;;;;;;;1.48;1.00;;;;;;;29.42;19.79;100352.41;5069077;28;20415;-60
2022/05/23 12:03:04;;;;;;;2.97;1.10;;;;;;;29.50;19.92;100362.59;5028814;28;20912;-60
2022/05/23 12:05:33;;;;;;;2.30;0.90;;;;;;;29.27;19.90;100371.84;5068881;28;20410;-61
2022/05/23 12:08:03;;;;;;;4.18;1.30;;;;;;;29.20;19.42;100358.59;5069084;28;20789;-61
2022/05/23 12:10:55;;;;;;;4.63;0.98;;;;;;;29.35;19.61;100362.91;5069063;28;20869;-60
2022/05/23 12:13:40;;;;;;;2.17;0.95;;;;;;;29.21;19.63;100360.22;5068467;28;20962;-62
2022/05/23 12:16:39;;;;;;;4.70;1.10;;;;;;;29.26;20.13;100357.38;5069104;28;20449;-61
2022/05/23 12:19:32;;;;;;;2.47;1.08;;;;;;;29.30;19.88;100347.47;5046196;28;20494;-60
2022/05/23 12:22:20;;;;;;;3.87;0.90;;;;;;;29.27;20.07;100350.81;5068699;28;20415;-60
2022/05/23 12:25:22;;;;;;;1.73;1.00;;;;;;;29.70;20.42;100344.97;5069136;28;20407;-61
2022/05/23 12:28:25;;;;;;;2.30;1.00;;;;;;;29.67;20.11;100347.50;5068980;28;20410;-61
2022/05/23 12:31:13;;;;;;;2.90;1.10;;;;;;;29.58;20.12;100352.88;5069118;28;20417;-61
2022/05/23 12:33:48;;;;;;;3.55;1.02;;;;;;;29.73;20.41;100346.28;5068831;28;20497;-61
2022/05/23 12:36:22;;;;;;;2.33;1.00;;;;;;;29.58;20.50;100355.59;5068782;28;20411;-60